37 Rocks — ZM3003 — position and weather

sailwx.info

Track history (hours):
 
Tides and Currents Weather Stations Pressure Air Temp Water Temp Dewpoint Dewpoint Depression Visibility Wind Speed Wind Dir Waves Ship Positions

37 Rocks

Last reported at 2017-Aug-08 12:12 UTC. Time now 2017-Aug-17 19:06 UTC.
Position N 37°06' E 024°56'.
Warning: this ship's position is 9 days out of date.

Length 17 m.

Type: Sailing vessel. MMSI: 512003230.

Date/timePositionNaut miles runAvg speedWind from/ knotsBaromVisibWave heightAir tempDewpointWater temp
2017-Aug-08 12:12N 37°06' E 024°56'1 6.5
2017-Aug-08 12:00N 37°07' E 024°58'3 6.6
2017-Aug-08 11:30N 37°09' E 025°01'4 7.2
2017-Aug-08 11:00N 37°12' E 025°04'5 7.3
2017-Aug-08 10:15N 37°15' E 025°09'2 7.8
2017-Aug-08 10:00N 37°16' E 025°11'4 7.5
2017-Aug-08 09:30N 37°19' E 025°14'4 7.7
2017-Aug-08 09:00N 37°22' E 025°18'3 6.3
2017-Aug-08 08:30N 37°24' E 025°21'1 0.0
2017-Aug-07 14:55N 37°24' E 025°21'0 0.0
2017-Aug-07 14:28N 37°24' E 025°21'1 2.8
2017-Aug-07 13:59N 37°23' E 025°22'2 5.0
2017-Aug-07 13:31N 37°22' E 025°24'2 4.2
2017-Aug-07 12:59N 37°21' E 025°27'2 4.1
2017-Aug-07 12:30N 37°19' E 025°26'2 4.3
2017-Aug-07 12:00N 37°17' E 025°25'3 5.3
2017-Aug-07 11:30N 37°16' E 025°22'3 5.7
2017-Aug-07 11:00N 37°13' E 025°22'3 6.7
2017-Aug-07 10:30N 37°10' E 025°21'2 4.3
2017-Aug-07 09:59N 37°07' E 025°21'1 2.8
2017-Aug-07 09:30N 37°07' E 025°22'0 0.0
2017-Aug-06 15:55N 37°06' E 025°22'0 0.0
2017-Aug-06 14:22N 37°06' E 025°22'0 0.0
2017-Aug-06 14:00N 37°06' E 025°22'3 6.9
2017-Aug-06 13:30N 37°09' E 025°19'3 6.4
2017-Aug-06 13:00N 37°11' E 025°16'1 2.9
2017-Aug-06 12:30N 37°10' E 025°15'  
2017-Aug-03 21:35N 37°06' E 025°06'1 7.3
2017-Aug-03 21:30N 37°07' E 025°05'3 5.9
2017-Aug-03 21:00N 37°08' E 025°02'3 6.8
2017-Aug-03 20:30N 37°10' E 024°58'3 5.6
2017-Aug-03 20:00N 37°12' E 024°56'1 2.8
2017-Aug-03 19:30N 37°12' E 024°54'3 6.5
2017-Aug-03 19:00N 37°14' E 024°50'61 7.3
2017-Aug-03 10:40N 37°42' E 023°42'1 7.5
2017-Aug-03 10:30N 37°42' E 023°41'3 6.1
2017-Aug-03 09:58N 37°43' E 023°37'2 5.0
2017-Aug-03 09:30N 37°44' E 023°34'1 0.0
2017-Aug-02 12:38N 37°45' E 023°33'1 8.2
2017-Aug-02 12:30N 37°46' E 023°34'4 7.3
2017-Aug-02 11:59N 37°47' E 023°30'  
2017-Jul-29 16:39N 37°43' E 023°21'0 0.0
2017-Jul-29 16:30N 37°43' E 023°21'0 0.0
2017-Jul-29 16:00N 37°43' E 023°21'0 0.0
2017-Jul-29 15:24N 37°43' E 023°21'  
Track history (hours):
 
Tides and Currents Weather Stations Pressure Air Temp Water Temp Dewpoint Dewpoint Depression Visibility Wind Speed Wind Dir Waves Ship Positions

37 Rocks

Last reported at 2017-Aug-08 12:12 UTC. Time now 2017-Aug-17 19:06 UTC.
Position N 37°06' E 024°56'.
Warning: this ship's position is 9 days out of date.

Length 17 m.

Type: Sailing vessel. MMSI: 512003230.

Date/timePositionNaut miles runAvg speedWind from/ knotsBaromVisibWave heightAir tempDewpointWater temp
2017-Aug-08 12:12N 37°06' E 024°56'1 6.5
2017-Aug-08 12:00N 37°07' E 024°58'3 6.6
2017-Aug-08 11:30N 37°09' E 025°01'4 7.2
2017-Aug-08 11:00N 37°12' E 025°04'5 7.3
2017-Aug-08 10:15N 37°15' E 025°09'2 7.8
2017-Aug-08 10:00N 37°16' E 025°11'4 7.5
2017-Aug-08 09:30N 37°19' E 025°14'4 7.7
2017-Aug-08 09:00N 37°22' E 025°18'3 6.3
2017-Aug-08 08:30N 37°24' E 025°21'1 0.0
2017-Aug-07 14:55N 37°24' E 025°21'0 0.0
2017-Aug-07 14:28N 37°24' E 025°21'1 2.8
2017-Aug-07 13:59N 37°23' E 025°22'2 5.0
2017-Aug-07 13:31N 37°22' E 025°24'2 4.2
2017-Aug-07 12:59N 37°21' E 025°27'2 4.1
2017-Aug-07 12:30N 37°19' E 025°26'2 4.3
2017-Aug-07 12:00N 37°17' E 025°25'3 5.3
2017-Aug-07 11:30N 37°16' E 025°22'3 5.7
2017-Aug-07 11:00N 37°13' E 025°22'3 6.7
2017-Aug-07 10:30N 37°10' E 025°21'2 4.3
2017-Aug-07 09:59N 37°07' E 025°21'1 2.8
2017-Aug-07 09:30N 37°07' E 025°22'0 0.0
2017-Aug-06 15:55N 37°06' E 025°22'0 0.0
2017-Aug-06 14:22N 37°06' E 025°22'0 0.0
2017-Aug-06 14:00N 37°06' E 025°22'3 6.9
2017-Aug-06 13:30N 37°09' E 025°19'3 6.4
2017-Aug-06 13:00N 37°11' E 025°16'1 2.9
2017-Aug-06 12:30N 37°10' E 025°15'  
2017-Aug-03 21:35N 37°06' E 025°06'1 7.3
2017-Aug-03 21:30N 37°07' E 025°05'3 5.9
2017-Aug-03 21:00N 37°08' E 025°02'3 6.8
2017-Aug-03 20:30N 37°10' E 024°58'3 5.6
2017-Aug-03 20:00N 37°12' E 024°56'1 2.8
2017-Aug-03 19:30N 37°12' E 024°54'3 6.5
2017-Aug-03 19:00N 37°14' E 024°50'61 7.3
2017-Aug-03 10:40N 37°42' E 023°42'1 7.5
2017-Aug-03 10:30N 37°42' E 023°41'3 6.1
2017-Aug-03 09:58N 37°43' E 023°37'2 5.0
2017-Aug-03 09:30N 37°44' E 023°34'1 0.0
2017-Aug-02 12:38N 37°45' E 023°33'1 8.2
2017-Aug-02 12:30N 37°46' E 023°34'4 7.3
2017-Aug-02 11:59N 37°47' E 023°30'  
2017-Jul-29 16:39N 37°43' E 023°21'0 0.0
2017-Jul-29 16:30N 37°43' E 023°21'0 0.0
2017-Jul-29 16:00N 37°43' E 023°21'0 0.0
2017-Jul-29 15:24N 37°43' E 023°21'  

Dump ship's entire track history